createdAt,value
2022-12-15T00:02:37.505Z,16.38
2022-12-15T00:05:23.458Z,16.40
2022-12-15T00:08:09.458Z,17.70
2022-12-15T00:10:55.225Z,17.30
2022-12-15T00:13:41.247Z,17.67
2022-12-15T00:16:27.416Z,16.83
2022-12-15T00:19:14.786Z,17.58
2022-12-15T00:22:00.643Z,17.35
2022-12-15T00:24:49.932Z,16.33
2022-12-15T00:27:35.980Z,15.63
2022-12-15T00:30:21.792Z,16.42
2022-12-15T00:33:07.878Z,17.33
2022-12-15T00:35:55.082Z,17.05
2022-12-15T00:38:43.156Z,17.27
2022-12-15T00:41:12.022Z,15.98
2022-12-15T00:43:40.215Z,16.88
2022-12-15T00:46:26.157Z,17.30
2022-12-15T00:48:54.390Z,17.27
2022-12-15T00:51:41.774Z,16.90
2022-12-15T00:54:27.829Z,16.52
2022-12-15T00:57:13.732Z,16.13
2022-12-15T00:59:59.722Z,18.20
2022-12-15T01:02:45.840Z,16.80
2022-12-15T01:05:32.011Z,15.77
2022-12-15T01:08:19.654Z,16.42
2022-12-15T01:11:05.372Z,15.63
2022-12-15T01:13:51.350Z,16.77
2022-12-15T01:16:37.504Z,16.77
2022-12-15T01:19:23.172Z,17.23
2022-12-15T01:21:51.592Z,16.35
2022-12-15T01:24:21.104Z,16.40
2022-12-15T01:26:49.293Z,17.27
2022-12-15T01:29:17.541Z,17.50
2022-12-15T01:31:46.133Z,16.98
2022-12-15T01:34:19.889Z,17.70
2022-12-15T01:36:48.120Z,15.93
2022-12-15T01:39:16.280Z,16.85
2022-12-15T01:41:44.824Z,17.48
2022-12-15T01:44:19.863Z,17.48
2022-12-15T01:46:48.755Z,17.35
2022-12-15T01:49:18.116Z,17.30
2022-12-15T01:51:48.859Z,18.15
2022-12-15T01:54:18.593Z,17.25
2022-12-15T01:56:49.550Z,17.42
2022-12-15T01:59:19.519Z,16.45
2022-12-15T02:01:49.916Z,17.75
2022-12-15T02:04:19.665Z,17.20
2022-12-15T02:06:47.850Z,17.63
2022-12-15T02:09:16.582Z,17.00
2022-12-15T02:11:46.603Z,18.27
2022-12-15T02:14:19.451Z,18.73
2022-12-15T02:16:56.161Z,18.55
2022-12-15T02:19:36.275Z,18.58
2022-12-15T02:22:12.165Z,20.00
2022-12-15T02:24:55.781Z,19.05
2022-12-15T02:27:31.767Z,16.33
2022-12-15T02:30:18.993Z,18.65
2022-12-15T02:32:50.776Z,18.30
2022-12-15T02:35:22.206Z,16.65
2022-12-15T02:37:50.657Z,16.88
2022-12-15T02:40:18.892Z,16.58
2022-12-15T02:42:48.838Z,18.05
2022-12-15T02:45:21.164Z,17.63
2022-12-15T02:47:54.320Z,17.73
2022-12-15T02:50:29.624Z,18.88
2022-12-15T02:53:04.509Z,19.52
2022-12-15T02:55:37.342Z,18.38
2022-12-15T02:58:08.349Z,19.40
2022-12-15T03:00:39.610Z,18.75
2022-12-15T03:03:08.257Z,18.88
2022-12-15T03:05:36.607Z,17.15
2022-12-15T03:08:04.873Z,17.40
2022-12-15T03:10:33.091Z,18.13
2022-12-15T03:13:01.238Z,17.77
2022-12-15T03:15:35.121Z,19.42
2022-12-15T03:18:05.284Z,18.90
2022-12-15T03:20:33.436Z,18.75
2022-12-15T03:23:02.299Z,20.23
2022-12-15T03:25:30.732Z,18.05
2022-12-15T03:27:58.914Z,19.13
2022-12-15T03:30:27.055Z,18.17
2022-12-15T03:32:55.265Z,18.73
2022-12-15T03:35:24.843Z,16.63
2022-12-15T03:37:53.042Z,17.27
2022-12-15T03:40:21.205Z,16.65
2022-12-15T03:42:49.345Z,18.13
2022-12-15T03:45:18.038Z,17.17
2022-12-15T03:47:47.062Z,17.20
2022-12-15T03:50:16.974Z,17.35
2022-12-15T03:52:46.481Z,17.70
2022-12-15T03:55:14.630Z,17.50
2022-12-15T03:57:43.115Z,17.42
2022-12-15T04:00:14.817Z,17.40
2022-12-15T04:02:43.111Z,16.17
2022-12-15T04:05:15.352Z,17.65
2022-12-15T04:07:43.547Z,19.08
2022-12-15T04:10:13.563Z,16.48
2022-12-15T04:12:41.861Z,17.40
2022-12-15T04:15:11.865Z,16.90
2022-12-15T04:17:40.401Z,18.42
2022-12-15T04:20:11.160Z,18.15
2022-12-15T04:22:40.270Z,16.80
2022-12-15T04:25:27.260Z,16.77
2022-12-15T04:28:14.391Z,16.65
2022-12-15T04:31:02.263Z,17.30
2022-12-15T04:33:48.263Z,17.02
2022-12-15T04:36:34.265Z,17.30
2022-12-15T04:39:20.279Z,16.83
2022-12-15T04:42:06.251Z,16.60
2022-12-15T04:44:53.902Z,17.23
2022-12-15T04:47:39.936Z,17.42
2022-12-15T04:50:26.246Z,15.82
2022-12-15T04:53:12.155Z,17.00
2022-12-15T04:55:58.288Z,16.67
2022-12-15T04:58:44.359Z,17.60
2022-12-15T05:01:31.621Z,16.02
2022-12-15T05:04:17.532Z,16.23
2022-12-15T05:07:03.507Z,16.25
2022-12-15T05:09:49.338Z,16.42
2022-12-15T05:12:35.191Z,16.02
2022-12-15T05:15:21.167Z,18.63
2022-12-15T05:18:08.573Z,17.25
2022-12-15T05:20:54.435Z,16.27
2022-12-15T05:23:40.466Z,16.90
2022-12-15T05:26:26.556Z,17.08
2022-12-15T05:29:12.678Z,16.92
2022-12-15T05:31:51.851Z,17.17
2022-12-15T05:34:23.068Z,16.17
2022-12-15T05:36:51.286Z,16.63
2022-12-15T05:39:19.722Z,16.33
2022-12-15T05:41:47.981Z,16.70
2022-12-15T05:44:17.391Z,16.58
2022-12-15T05:46:45.896Z,16.58
2022-12-15T05:49:15.038Z,15.95
2022-12-15T05:51:45.459Z,17.08
2022-12-15T05:54:16.314Z,15.63
2022-12-15T05:56:44.574Z,17.25
2022-12-15T05:59:12.725Z,16.98
2022-12-15T06:01:40.991Z,17.15
2022-12-15T06:04:09.273Z,16.15
2022-12-15T06:06:37.462Z,15.05
2022-12-15T06:09:07.410Z,17.02
2022-12-15T06:11:35.585Z,16.60
2022-12-15T06:14:03.759Z,15.93
2022-12-15T06:16:32.027Z,16.00
2022-12-15T06:19:00.980Z,14.95
2022-12-15T06:21:30.623Z,15.35
2022-12-15T06:23:59.026Z,15.18
2022-12-15T06:26:29.539Z,16.40
2022-12-15T06:28:58.493Z,16.45
2022-12-15T06:31:27.455Z,16.50
2022-12-15T06:34:01.724Z,16.45
2022-12-15T06:36:31.555Z,16.55
2022-12-15T06:39:00.468Z,16.90
2022-12-15T06:41:30.955Z,15.77
2022-12-15T06:43:59.528Z,15.70
2022-12-15T06:46:28.640Z,15.40
2022-12-15T06:48:57.198Z,13.77
2022-12-15T06:51:25.426Z,14.55
2022-12-15T06:53:54.280Z,13.82
2022-12-15T06:56:28.898Z,14.52
2022-12-15T06:59:02.263Z,13.43
2022-12-15T07:01:30.750Z,12.20
2022-12-15T07:04:01.288Z,11.32
2022-12-15T07:06:30.209Z,11.73
2022-12-15T07:08:58.357Z,10.68
2022-12-15T07:11:26.518Z,11.43
2022-12-15T07:13:55.415Z,11.13
2022-12-15T07:16:25.671Z,11.52
2022-12-15T07:18:53.926Z,9.75
2022-12-15T07:21:22.083Z,10.32
2022-12-15T07:23:55.721Z,10.57
2022-12-15T07:26:25.129Z,10.20
2022-12-15T07:28:54.379Z,10.07
2022-12-15T07:31:23.699Z,10.65
2022-12-15T07:33:54.480Z,10.15
2022-12-15T07:36:22.844Z,10.02
2022-12-15T07:38:51.852Z,11.35
2022-12-15T07:41:21.082Z,10.23
2022-12-15T07:43:49.345Z,11.15
2022-12-15T07:46:17.843Z,9.82
2022-12-15T07:48:50.651Z,10.48
2022-12-15T07:51:21.436Z,9.10
2022-12-15T07:53:50.894Z,9.27
2022-12-15T07:56:19.699Z,9.38
2022-12-15T07:58:48.368Z,9.43
2022-12-15T08:01:17.344Z,10.43
2022-12-15T08:03:46.046Z,9.93
2022-12-15T08:06:15.239Z,10.85
2022-12-15T08:08:50.816Z,9.52
2022-12-15T08:11:20.026Z,9.60
2022-12-15T08:14:06.731Z,11.20
2022-12-15T08:16:36.616Z,9.68
2022-12-15T08:19:05.762Z,9.53
2022-12-15T08:21:34.381Z,10.00
2022-12-15T08:24:04.127Z,9.57
2022-12-15T08:26:32.300Z,10.40
2022-12-15T08:29:40.519Z,9.53
2022-12-15T08:31:52.939Z,9.90
2022-12-15T08:34:21.282Z,10.83
2022-12-15T08:36:49.459Z,9.57
2022-12-15T08:39:18.998Z,11.17
2022-12-15T08:41:47.240Z,10.70
2022-12-15T08:44:16.918Z,10.30
2022-12-15T08:46:45.606Z,9.57
2022-12-15T08:49:18.081Z,10.27
2022-12-15T08:51:50.621Z,9.63
2022-12-15T08:54:20.537Z,8.90
2022-12-15T08:56:49.115Z,9.20
2022-12-15T08:59:17.471Z,9.83
2022-12-15T09:01:45.854Z,10.13
2022-12-15T09:04:14.236Z,10.93
2022-12-15T09:06:42.504Z,10.27
2022-12-15T09:09:13.370Z,10.13
2022-12-15T09:11:42.902Z,10.53
2022-12-15T09:14:11.090Z,10.57
2022-12-15T09:16:39.317Z,9.70
2022-12-15T09:19:08.178Z,10.10
2022-12-15T09:21:36.362Z,11.50
2022-12-15T09:24:05.128Z,10.57
2022-12-15T09:26:34.889Z,11.03
2022-12-15T09:29:04.883Z,9.93
2022-12-15T09:31:33.929Z,10.90
2022-12-15T09:34:02.524Z,10.47
2022-12-15T09:36:32.428Z,10.63
2022-12-15T09:39:01.769Z,11.27
2022-12-15T09:41:31.201Z,11.03
2022-12-15T09:44:04.663Z,11.00
2022-12-15T09:46:40.425Z,10.93
2022-12-15T09:49:13.150Z,11.57
2022-12-15T09:51:43.219Z,11.60
2022-12-15T09:54:12.262Z,10.70
2022-12-15T09:56:42.798Z,12.13
2022-12-15T09:59:19.094Z,10.70
2022-12-15T10:01:52.508Z,10.87
2022-12-15T10:04:27.301Z,11.37
2022-12-15T10:06:56.811Z,12.93
2022-12-15T10:09:27.614Z,11.57
2022-12-15T10:11:59.209Z,11.43
2022-12-15T10:14:29.914Z,11.60
2022-12-15T10:17:04.354Z,12.70
2022-12-15T10:19:35.688Z,12.23
2022-12-15T10:22:03.984Z,11.43
2022-12-15T10:27:28.356Z,11.17
2022-12-15T10:30:00.111Z,11.70
2022-12-15T10:32:36.729Z,12.07
2022-12-15T10:35:09.907Z,11.60
2022-12-15T10:37:38.064Z,11.27
2022-12-15T10:40:06.670Z,11.13
2022-12-15T10:42:46.274Z,10.57
2022-12-15T10:45:35.523Z,12.70
2022-12-15T10:48:06.715Z,12.30
2022-12-15T10:50:35.458Z,12.50
2022-12-15T10:53:08.468Z,11.67
2022-12-15T10:55:38.841Z,13.77
2022-12-15T10:58:16.095Z,15.13
2022-12-15T11:00:44.311Z,13.90
2022-12-15T11:03:25.972Z,11.87
2022-12-15T11:05:54.737Z,9.83
2022-12-15T11:08:23.674Z,10.17
2022-12-15T11:11:11.138Z,10.00
2022-12-15T11:13:39.710Z,10.27
2022-12-15T11:16:17.744Z,11.23
2022-12-15T11:18:49.759Z,10.63
2022-12-15T11:21:21.849Z,9.70
2022-12-15T11:23:53.760Z,8.63
2022-12-15T11:26:31.628Z,7.93
2022-12-15T11:29:01.281Z,7.83
2022-12-15T11:31:33.843Z,8.40
2022-12-15T11:34:03.362Z,8.07
2022-12-15T11:36:41.004Z,8.07
2022-12-15T11:39:16.003Z,7.50
2022-12-15T11:41:48.127Z,7.80
2022-12-15T11:44:24.840Z,7.70
2022-12-15T11:46:55.844Z,7.50
2022-12-15T11:49:40.928Z,6.90
2022-12-15T11:52:14.398Z,8.10
2022-12-15T11:54:46.147Z,7.20
2022-12-15T11:57:24.754Z,8.73
2022-12-15T12:00:01.016Z,7.77
2022-12-15T12:02:36.731Z,7.33
2022-12-15T12:05:21.156Z,7.63
2022-12-15T12:07:51.075Z,7.13
2022-12-15T12:10:25.623Z,6.70
2022-12-15T12:12:56.826Z,6.90
2022-12-15T12:15:28.744Z,7.50
2022-12-15T12:17:59.751Z,6.27
2022-12-15T12:20:31.493Z,6.20
2022-12-15T12:23:03.351Z,5.93
2022-12-15T12:25:32.821Z,5.73
2022-12-15T12:28:03.708Z,5.83
2022-12-15T12:30:35.504Z,6.30
2022-12-15T12:33:08.096Z,5.33
2022-12-15T12:35:41.019Z,5.60
2022-12-15T12:38:10.994Z,5.93
2022-12-15T12:40:47.811Z,5.53
2022-12-15T12:43:24.773Z,5.70
2022-12-15T12:45:55.736Z,5.57
2022-12-15T12:48:27.381Z,5.73
2022-12-15T12:51:11.022Z,5.47
2022-12-15T12:53:39.182Z,6.00
2022-12-15T12:56:07.592Z,6.60
2022-12-15T12:58:39.590Z,5.67
2022-12-15T13:01:17.654Z,5.10
2022-12-15T13:03:46.287Z,5.43
2022-12-15T13:06:32.057Z,5.77
2022-12-15T13:09:21.519Z,5.80
2022-12-15T13:11:57.591Z,6.10
2022-12-15T13:14:46.557Z,6.07
2022-12-15T13:17:27.467Z,5.90
2022-12-15T13:20:23.509Z,6.57
2022-12-15T13:22:52.052Z,6.40
2022-12-15T13:25:29.694Z,5.77
2022-12-15T13:28:00.563Z,6.20
2022-12-15T13:30:28.825Z,6.10
2022-12-15T13:33:14.945Z,6.47
2022-12-15T13:35:44.115Z,6.20
2022-12-15T13:38:18.184Z,6.10
2022-12-15T13:40:54.925Z,7.20
2022-12-15T13:43:39.530Z,6.43
2022-12-15T13:46:13.317Z,6.10
2022-12-15T13:48:42.357Z,6.13
2022-12-15T13:51:21.320Z,6.17
2022-12-15T13:53:51.820Z,5.67
2022-12-15T13:56:37.736Z,6.03
2022-12-15T13:59:08.801Z,6.53
2022-12-15T14:01:37.213Z,6.50
2022-12-15T14:04:07.019Z,5.73
2022-12-15T14:06:39.967Z,5.83
2022-12-15T14:09:08.965Z,5.37
2022-12-15T14:14:29.667Z,5.97
2022-12-15T14:16:59.981Z,5.83
2022-12-15T14:19:32.083Z,6.63
2022-12-15T14:22:03.123Z,6.93
2022-12-15T14:24:40.484Z,6.83
2022-12-15T14:27:09.188Z,7.83
2022-12-15T14:29:38.689Z,7.53
2022-12-15T14:32:07.303Z,7.00
2022-12-15T14:34:38.756Z,8.33
2022-12-15T14:37:09.393Z,8.13
2022-12-15T14:39:41.879Z,8.13
2022-12-15T14:42:16.673Z,9.10
2022-12-15T14:44:50.732Z,8.70
2022-12-15T14:47:21.630Z,8.43
2022-12-15T14:49:49.986Z,8.80
2022-12-15T14:52:25.761Z,10.03
2022-12-15T14:54:57.476Z,9.83
2022-12-15T14:57:27.082Z,11.63
2022-12-15T14:59:56.767Z,11.27
2022-12-15T15:02:27.037Z,10.43
2022-12-15T15:05:02.387Z,12.30
2022-12-15T15:07:31.636Z,11.70
2022-12-15T15:10:00.299Z,12.67
2022-12-15T15:12:35.977Z,12.17
2022-12-15T15:15:06.849Z,13.13
2022-12-15T15:17:37.487Z,12.43
2022-12-15T15:20:07.296Z,12.93
2022-12-15T15:22:37.289Z,13.17
2022-12-15T15:25:20.334Z,12.37
2022-12-15T15:27:48.529Z,13.60
2022-12-15T15:30:20.032Z,12.77
2022-12-15T15:32:55.630Z,14.40
2022-12-15T15:35:24.577Z,12.53
2022-12-15T15:37:53.343Z,11.63
2022-12-15T15:40:21.562Z,12.13
2022-12-15T15:42:49.926Z,13.67
2022-12-15T15:45:19.453Z,13.33
2022-12-15T15:47:49.834Z,12.73
2022-12-15T15:50:21.775Z,12.07
2022-12-15T15:52:50.045Z,12.83
2022-12-15T15:55:21.283Z,12.30
2022-12-15T15:57:49.485Z,12.77
2022-12-15T16:00:21.394Z,13.50
2022-12-15T16:02:50.015Z,12.77
2022-12-15T16:05:18.591Z,13.80
2022-12-15T16:07:47.489Z,13.93
2022-12-15T16:10:16.299Z,11.87
2022-12-15T16:12:45.892Z,14.63
2022-12-15T16:15:18.524Z,13.73
2022-12-15T16:17:48.091Z,14.47
2022-12-15T16:20:17.017Z,13.23
2022-12-15T16:22:46.004Z,13.30
2022-12-15T16:25:18.146Z,13.20
2022-12-15T16:27:46.631Z,13.50
2022-12-15T16:30:22.769Z,13.63
2022-12-15T16:32:52.562Z,14.27
2022-12-15T16:35:21.098Z,15.00
2022-12-15T16:37:49.375Z,14.47
2022-12-15T16:40:19.107Z,14.27
2022-12-15T16:42:50.414Z,13.57
2022-12-15T16:45:19.533Z,13.83
2022-12-15T16:47:49.281Z,14.27
2022-12-15T16:50:22.656Z,14.33
2022-12-15T16:52:52.173Z,14.93
2022-12-15T16:55:21.594Z,14.27
2022-12-15T16:57:50.279Z,14.83
2022-12-15T17:00:20.155Z,15.97
2022-12-15T17:02:48.656Z,14.77
2022-12-15T17:05:17.302Z,13.77
2022-12-15T17:07:47.607Z,13.37
2022-12-15T17:10:19.902Z,14.40
2022-12-15T17:12:48.412Z,14.23
2022-12-15T17:15:20.527Z,14.70
2022-12-15T17:17:48.686Z,14.47
2022-12-15T17:20:29.083Z,13.10
2022-12-15T17:23:00.992Z,14.30
2022-12-15T17:26:09.449Z,13.67
2022-12-15T17:28:24.961Z,13.23
2022-12-15T17:30:53.327Z,13.60
2022-12-15T17:33:22.443Z,13.37
2022-12-15T17:35:51.669Z,13.50
2022-12-15T17:38:22.578Z,13.33
2022-12-15T17:40:52.057Z,13.77
2022-12-15T17:43:21.156Z,14.17
2022-12-15T17:45:50.703Z,14.60
2022-12-15T17:48:19.185Z,13.13
2022-12-15T17:50:49.896Z,12.73
2022-12-15T17:53:18.903Z,12.37
2022-12-15T17:55:49.602Z,13.70
2022-12-15T17:58:18.752Z,12.40
2022-12-15T18:00:49.222Z,12.97
2022-12-15T18:03:18.292Z,11.63
2022-12-15T18:05:48.615Z,12.27
2022-12-15T18:08:17.709Z,12.13
2022-12-15T18:10:46.607Z,13.80
2022-12-15T18:13:20.028Z,12.93
2022-12-15T18:15:48.508Z,13.00
2022-12-15T18:18:17.088Z,12.17
2022-12-15T18:20:45.542Z,11.80
2022-12-15T18:23:15.022Z,12.13
2022-12-15T18:25:43.990Z,11.77
2022-12-15T18:28:19.081Z,12.93
2022-12-15T18:30:48.797Z,12.23
2022-12-15T18:33:16.981Z,12.17
2022-12-15T18:35:46.695Z,12.23
2022-12-15T18:38:16.909Z,11.00
2022-12-15T18:40:45.542Z,10.80
2022-12-15T18:43:15.480Z,10.67
2022-12-15T18:45:43.987Z,11.20
2022-12-15T18:48:22.056Z,11.33
2022-12-15T18:50:52.453Z,10.80
2022-12-15T18:53:25.064Z,10.97
2022-12-15T18:55:53.583Z,10.60
2022-12-15T18:58:25.595Z,10.53
2022-12-15T19:00:54.134Z,10.50
2022-12-15T19:03:24.407Z,9.60
2022-12-15T19:05:55.439Z,11.17
2022-12-15T19:08:25.494Z,10.80
2022-12-15T19:10:58.153Z,10.67
2022-12-15T19:13:30.484Z,9.73
2022-12-15T19:15:59.244Z,8.40
2022-12-15T19:18:46.374Z,8.67
2022-12-15T19:21:45.374Z,8.10
2022-12-15T19:24:15.174Z,7.77
2022-12-15T19:26:43.360Z,6.90
2022-12-15T19:29:15.946Z,6.23
2022-12-15T19:31:44.238Z,7.87
2022-12-15T19:34:13.838Z,7.93
2022-12-15T19:36:42.101Z,7.93
2022-12-15T19:39:12.588Z,6.60
2022-12-15T19:41:40.938Z,6.50
2022-12-15T19:44:11.721Z,6.60
2022-12-15T19:46:42.568Z,5.77
2022-12-15T19:49:10.720Z,6.40
2022-12-15T19:51:41.781Z,6.47
2022-12-15T19:54:14.763Z,6.30
2022-12-15T19:56:45.749Z,5.33
2022-12-15T19:59:19.914Z,5.13
2022-12-15T20:01:48.243Z,5.70
2022-12-15T20:04:19.636Z,5.10
2022-12-15T20:06:51.905Z,5.43
2022-12-15T20:09:20.250Z,5.90
2022-12-15T20:11:48.407Z,5.53
2022-12-15T20:14:18.944Z,5.70
2022-12-15T20:16:47.688Z,4.83
2022-12-15T20:19:15.902Z,4.87
2022-12-15T20:21:44.183Z,4.80
2022-12-15T20:24:15.549Z,4.77
2022-12-15T20:26:44.653Z,4.93
2022-12-15T20:29:20.206Z,5.33
2022-12-15T20:31:48.468Z,5.13
2022-12-15T20:34:16.692Z,4.80
2022-12-15T20:36:45.021Z,5.17
2022-12-15T20:39:20.280Z,4.93
2022-12-15T20:41:48.977Z,6.20
2022-12-15T20:44:17.138Z,6.20
2022-12-15T20:46:45.338Z,5.20
2022-12-15T20:49:16.318Z,5.37
2022-12-15T20:51:44.595Z,5.57
2022-12-15T20:54:17.211Z,5.27
2022-12-15T20:56:45.698Z,5.40
2022-12-15T20:59:14.120Z,4.72
2022-12-15T21:01:43.105Z,4.80
2022-12-15T21:04:20.000Z,4.90
2022-12-15T21:06:52.939Z,5.03
2022-12-15T21:09:26.192Z,4.47
2022-12-15T21:11:55.247Z,4.10
2022-12-15T21:14:25.236Z,4.45
2022-12-15T21:16:53.503Z,4.63
2022-12-15T21:19:22.838Z,4.60
2022-12-15T21:21:52.953Z,3.90
2022-12-15T21:24:26.142Z,4.43
2022-12-15T21:26:54.784Z,3.70
2022-12-15T21:29:24.218Z,4.17
2022-12-15T21:31:52.443Z,3.87
2022-12-15T21:34:22.568Z,3.87
2022-12-15T21:36:55.290Z,4.07
2022-12-15T21:39:29.191Z,4.40
2022-12-15T21:41:57.836Z,4.97
2022-12-15T21:44:26.321Z,4.57
2022-12-15T21:46:54.770Z,4.60
2022-12-15T21:49:22.130Z,4.70
2022-12-15T21:51:53.057Z,4.35
2022-12-15T21:54:30.716Z,4.30
2022-12-15T21:56:59.747Z,4.13
2022-12-15T21:59:29.587Z,4.22
2022-12-15T22:01:57.947Z,3.90
2022-12-15T22:04:27.537Z,4.47
2022-12-15T22:06:55.765Z,3.80
2022-12-15T22:09:25.861Z,4.22
2022-12-15T22:11:55.682Z,4.00
2022-12-15T22:14:25.491Z,3.90
2022-12-15T22:16:53.966Z,4.15
2022-12-15T22:19:23.120Z,3.40
2022-12-15T22:21:52.057Z,3.25
2022-12-15T22:24:20.772Z,3.17
2022-12-15T22:26:50.433Z,3.10
2022-12-15T22:29:19.894Z,3.60
2022-12-15T22:31:48.348Z,3.33
2022-12-15T22:34:17.084Z,3.25
2022-12-15T22:36:45.341Z,3.60
2022-12-15T22:39:14.910Z,3.33
2022-12-15T22:41:44.149Z,3.40
2022-12-15T22:44:16.903Z,3.17
2022-12-15T22:46:45.176Z,3.10
2022-12-15T22:49:15.349Z,3.28
2022-12-15T22:51:43.506Z,3.25
2022-12-15T22:54:17.746Z,3.42
2022-12-15T22:56:46.262Z,3.00
2022-12-15T22:59:20.637Z,3.80
2022-12-15T23:01:48.819Z,3.20
2022-12-15T23:04:17.080Z,3.45
2022-12-15T23:06:45.874Z,3.45
2022-12-15T23:09:14.091Z,3.40
2022-12-15T23:11:41.878Z,3.08
2022-12-15T23:14:10.998Z,3.10
2022-12-15T23:16:39.911Z,3.35
2022-12-15T23:19:08.831Z,2.72
2022-12-15T23:21:37.862Z,2.58
2022-12-15T23:24:06.159Z,3.08
2022-12-15T23:26:34.307Z,2.40
2022-12-15T23:29:02.520Z,2.63
2022-12-15T23:31:30.719Z,2.60
2022-12-15T23:34:00.513Z,2.40
2022-12-15T23:36:28.690Z,2.35
2022-12-15T23:39:00.023Z,2.08
2022-12-15T23:41:29.278Z,1.88
2022-12-15T23:43:57.530Z,1.65
2022-12-15T23:46:25.905Z,1.70
2022-12-15T23:48:54.086Z,1.70
2022-12-15T23:51:24.862Z,1.80
2022-12-15T23:53:53.028Z,1.83
2022-12-15T23:56:24.086Z,2.10
2022-12-15T23:58:56.022Z,2.28
